sensor_id;sensor_type;location;lat;lon;timestamp;pressure;altitude;pressure_sealevel;temperature;humidity
74722;BME280;63237;49.826;6.740;2022-09-09T00:02:22;99589.05;;;25.42;49.21
74722;BME280;63237;49.826;6.740;2022-09-09T00:04:37;99585.02;;;25.42;49.21
74722;BME280;63237;49.826;6.740;2022-09-09T00:07:15;99578.94;;;25.42;49.22
74722;BME280;63237;49.826;6.740;2022-09-09T00:09:46;99569.45;;;25.39;49.22
74722;BME280;63237;49.826;6.740;2022-09-09T00:12:21;99566.20;;;25.40;49.20
74722;BME280;63237;49.826;6.740;2022-09-09T00:14:38;99562.97;;;25.39;49.21
74722;BME280;63237;49.826;6.740;2022-09-09T00:17:09;99563.78;;;25.40;49.19
74722;BME280;63237;49.826;6.740;2022-09-09T00:19:44;99557.16;;;25.38;49.18
74722;BME280;63237;49.826;6.740;2022-09-09T00:22:22;99559.25;;;25.38;49.14
74722;BME280;63237;49.826;6.740;2022-09-09T00:24:44;99553.64;;;25.39;49.14
74722;BME280;63237;49.826;6.740;2022-09-09T00:27:16;99549.12;;;25.37;49.13
74722;BME280;63237;49.826;6.740;2022-09-09T00:29:51;99553.75;;;25.37;49.15
74722;BME280;63237;49.826;6.740;2022-09-09T00:32:12;99560.27;;;25.37;49.09
74722;BME280;63237;49.826;6.740;2022-09-09T00:34:39;99559.52;;;25.38;49.07
74722;BME280;63237;49.826;6.740;2022-09-09T00:37:08;99557.57;;;25.37;49.06
74722;BME280;63237;49.826;6.740;2022-09-09T00:39:40;99554.83;;;25.38;49.05
74722;BME280;63237;49.826;6.740;2022-09-09T00:44:48;99563.96;;;25.36;49.06
74722;BME280;63237;49.826;6.740;2022-09-09T00:47:39;99566.93;;;25.37;49.03
74722;BME280;63237;49.826;6.740;2022-09-09T00:52:36;99569.20;;;25.36;48.98
74722;BME280;63237;49.826;6.740;2022-09-09T00:54:53;99572.81;;;25.36;48.97
74722;BME280;63237;49.826;6.740;2022-09-09T00:59:50;99579.05;;;25.33;48.96
74722;BME280;63237;49.826;6.740;2022-09-09T01:02:31;99572.11;;;25.34;48.92
74722;BME280;63237;49.826;6.740;2022-09-09T01:04:43;99583.17;;;25.33;48.93
74722;BME280;63237;49.826;6.740;2022-09-09T01:07:18;99586.41;;;25.34;48.97
74722;BME280;63237;49.826;6.740;2022-09-09T01:09:57;99589.66;;;25.34;48.93
74722;BME280;63237;49.826;6.740;2022-09-09T01:12:23;99586.11;;;25.33;48.94
74722;BME280;63237;49.826;6.740;2022-09-09T01:14:48;99587.56;;;25.33;48.91
74722;BME280;63237;49.826;6.740;2022-09-09T01:17:24;99594.05;;;25.33;48.94
74722;BME280;63237;49.826;6.740;2022-09-09T01:20:03;99592.55;;;25.34;48.92
74722;BME280;63237;49.826;6.740;2022-09-09T01:22:37;99585.12;;;25.34;48.91
74722;BME280;63237;49.826;6.740;2022-09-09T01:25:05;99583.10;;;25.32;48.95
74722;BME280;63237;49.826;6.740;2022-09-09T01:27:17;99584.46;;;25.30;48.97
74722;BME280;63237;49.826;6.740;2022-09-09T01:29:46;99585.12;;;25.33;48.95
74722;BME280;63237;49.826;6.740;2022-09-09T01:32:42;99586.65;;;25.32;48.95
74722;BME280;63237;49.826;6.740;2022-09-09T01:34:48;99588.84;;;25.32;48.93
74722;BME280;63237;49.826;6.740;2022-09-09T01:37:18;99584.89;;;25.32;48.94
74722;BME280;63237;49.826;6.740;2022-09-09T01:39:49;99587.97;;;25.31;49.00
74722;BME280;63237;49.826;6.740;2022-09-09T01:42:20;99586.45;;;25.31;49.02
74722;BME280;63237;49.826;6.740;2022-09-09T01:44:50;99589.80;;;25.30;49.02
74722;BME280;63237;49.826;6.740;2022-09-09T01:47:20;99589.59;;;25.31;49.02
74722;BME280;63237;49.826;6.740;2022-09-09T01:49:51;99592.91;;;25.31;49.01
74722;BME280;63237;49.826;6.740;2022-09-09T01:52:21;99591.59;;;25.30;49.04
74722;BME280;63237;49.826;6.740;2022-09-09T01:54:51;99586.31;;;25.31;49.01
74722;BME280;63237;49.826;6.740;2022-09-09T01:57:31;99584.97;;;25.31;49.01
74722;BME280;63237;49.826;6.740;2022-09-09T02:00:06;99583.17;;;25.31;48.97
74722;BME280;63237;49.826;6.740;2022-09-09T02:05:00;99579.02;;;25.32;48.99
74722;BME280;63237;49.826;6.740;2022-09-09T02:07:38;99583.78;;;25.30;49.01
74722;BME280;63237;49.826;6.740;2022-09-09T02:10:27;99575.98;;;25.30;49.03
74722;BME280;63237;49.826;6.740;2022-09-09T02:12:28;99574.13;;;25.28;49.06
74722;BME280;63237;49.826;6.740;2022-09-09T02:15:01;99573.25;;;25.28;49.04
74722;BME280;63237;49.826;6.740;2022-09-09T02:17:34;99578.70;;;25.28;49.05
74722;BME280;63237;49.826;6.740;2022-09-09T02:20:06;99578.27;;;25.26;49.09
74722;BME280;63237;49.826;6.740;2022-09-09T02:22:31;99574.47;;;25.28;49.05
74722;BME280;63237;49.826;6.740;2022-09-09T02:24:59;99572.31;;;25.26;49.05
74722;BME280;63237;49.826;6.740;2022-09-09T02:27:29;99569.84;;;25.27;49.05
74722;BME280;63237;49.826;6.740;2022-09-09T02:30:01;99567.62;;;25.26;49.06
74722;BME280;63237;49.826;6.740;2022-09-09T02:32:33;99563.26;;;25.27;49.03
74722;BME280;63237;49.826;6.740;2022-09-09T02:35:05;99565.39;;;25.27;49.03
74722;BME280;63237;49.826;6.740;2022-09-09T02:37:35;99563.94;;;25.27;49.02
74722;BME280;63237;49.826;6.740;2022-09-09T02:40:03;99560.12;;;25.27;49.01
74722;BME280;63237;49.826;6.740;2022-09-09T02:42:32;99554.41;;;25.27;48.97
74722;BME280;63237;49.826;6.740;2022-09-09T02:45:03;99557.99;;;25.26;48.99
74722;BME280;63237;49.826;6.740;2022-09-09T02:47:39;99562.05;;;25.26;49.00
74722;BME280;63237;49.826;6.740;2022-09-09T02:57:34;99558.77;;;25.25;49.02
74722;BME280;63237;49.826;6.740;2022-09-09T03:00:05;99554.32;;;25.23;49.05
74722;BME280;63237;49.826;6.740;2022-09-09T03:02:35;99558.78;;;25.23;49.05
74722;BME280;63237;49.826;6.740;2022-09-09T03:05:06;99562.77;;;25.23;49.01
74722;BME280;63237;49.826;6.740;2022-09-09T03:07:35;99564.35;;;25.24;49.01
74722;BME280;63237;49.826;6.740;2022-09-09T03:10:06;99557.09;;;25.24;49.01
74722;BME280;63237;49.826;6.740;2022-09-09T03:12:36;99554.21;;;25.25;48.97
74722;BME280;63237;49.826;6.740;2022-09-09T03:15:07;99553.37;;;25.25;48.98
74722;BME280;63237;49.826;6.740;2022-09-09T03:17:37;99556.34;;;25.23;49.04
74722;BME280;63237;49.826;6.740;2022-09-09T03:20:09;99561.16;;;25.22;49.05
74722;BME280;63237;49.826;6.740;2022-09-09T03:22:38;99555.41;;;25.23;49.02
74722;BME280;63237;49.826;6.740;2022-09-09T03:25:08;99555.73;;;25.24;49.00
74722;BME280;63237;49.826;6.740;2022-09-09T03:27:39;99556.15;;;25.22;49.01
74722;BME280;63237;49.826;6.740;2022-09-09T03:30:10;99555.71;;;25.22;49.03
74722;BME280;63237;49.826;6.740;2022-09-09T03:32:41;99555.14;;;25.22;49.00
74722;BME280;63237;49.826;6.740;2022-09-09T03:35:10;99559.16;;;25.22;48.98
74722;BME280;63237;49.826;6.740;2022-09-09T03:37:42;99555.58;;;25.22;48.97
74722;BME280;63237;49.826;6.740;2022-09-09T03:40:12;99554.50;;;25.21;48.96
74722;BME280;63237;49.826;6.740;2022-09-09T03:42:42;99556.19;;;25.21;49.01
74722;BME280;63237;49.826;6.740;2022-09-09T03:45:12;99558.92;;;25.22;48.94
74722;BME280;63237;49.826;6.740;2022-09-09T03:47:43;99562.47;;;25.22;48.94
74722;BME280;63237;49.826;6.740;2022-09-09T03:50:13;99560.91;;;25.21;48.97
74722;BME280;63237;49.826;6.740;2022-09-09T03:52:44;99556.62;;;25.20;48.95
74722;BME280;63237;49.826;6.740;2022-09-09T03:55:14;99560.75;;;25.21;48.95
74722;BME280;63237;49.826;6.740;2022-09-09T03:57:44;99556.58;;;25.23;48.92
74722;BME280;63237;49.826;6.740;2022-09-09T04:00:15;99560.25;;;25.19;48.95
74722;BME280;63237;49.826;6.740;2022-09-09T04:02:46;99564.54;;;25.20;48.94
74722;BME280;63237;49.826;6.740;2022-09-09T04:05:16;99559.34;;;25.19;48.95
74722;BME280;63237;49.826;6.740;2022-09-09T04:07:46;99563.55;;;25.20;48.94
74722;BME280;63237;49.826;6.740;2022-09-09T04:10:17;99558.28;;;25.20;48.94
74722;BME280;63237;49.826;6.740;2022-09-09T04:12:48;99560.42;;;25.19;48.96
74722;BME280;63237;49.826;6.740;2022-09-09T04:15:19;99560.42;;;25.19;48.92
74722;BME280;63237;49.826;6.740;2022-09-09T04:17:49;99568.76;;;25.19;48.93
74722;BME280;63237;49.826;6.740;2022-09-09T04:20:20;99565.22;;;25.19;48.94
74722;BME280;63237;49.826;6.740;2022-09-09T04:22:50;99564.98;;;25.19;48.89
74722;BME280;63237;49.826;6.740;2022-09-09T04:25:20;99566.06;;;25.19;48.88
74722;BME280;63237;49.826;6.740;2022-09-09T04:27:56;99560.08;;;25.19;48.84
74722;BME280;63237;49.826;6.740;2022-09-09T04:30:22;99562.89;;;25.18;48.86
74722;BME280;63237;49.826;6.740;2022-09-09T04:32:51;99562.86;;;25.18;48.87
74722;BME280;63237;49.826;6.740;2022-09-09T04:35:22;99566.23;;;25.17;48.88
74722;BME280;63237;49.826;6.740;2022-09-09T04:37:53;99566.75;;;25.16;48.89
74722;BME280;63237;49.826;6.740;2022-09-09T04:40:23;99568.84;;;25.16;48.88
74722;BME280;63237;49.826;6.740;2022-09-09T04:42:54;99573.60;;;25.17;48.84
74722;BME280;63237;49.826;6.740;2022-09-09T04:45:24;99569.95;;;25.16;48.82
74722;BME280;63237;49.826;6.740;2022-09-09T04:47:55;99574.62;;;25.15;48.81
74722;BME280;63237;49.826;6.740;2022-09-09T04:50:26;99573.40;;;25.16;48.78
74722;BME280;63237;49.826;6.740;2022-09-09T04:52:59;99574.45;;;25.15;48.78
74722;BME280;63237;49.826;6.740;2022-09-09T04:55:27;99576.23;;;25.16;48.77
74722;BME280;63237;49.826;6.740;2022-09-09T04:58:02;99579.28;;;25.16;48.74
74722;BME280;63237;49.826;6.740;2022-09-09T05:00:28;99574.00;;;25.17;48.71
74722;BME280;63237;49.826;6.740;2022-09-09T05:03:02;99576.88;;;25.16;48.71
74722;BME280;63237;49.826;6.740;2022-09-09T05:05:30;99582.39;;;25.15;48.70
74722;BME280;63237;49.826;6.740;2022-09-09T05:08:06;99583.09;;;25.16;48.64
74722;BME280;63237;49.826;6.740;2022-09-09T05:10:30;99586.68;;;25.16;48.62
74722;BME280;63237;49.826;6.740;2022-09-09T05:13:02;99593.81;;;25.15;48.64
74722;BME280;63237;49.826;6.740;2022-09-09T05:15:32;99591.81;;;25.16;48.55
74722;BME280;63237;49.826;6.740;2022-09-09T05:18:04;99593.93;;;25.19;48.53
74722;BME280;63237;49.826;6.740;2022-09-09T05:20:33;99597.11;;;25.16;48.64
74722;BME280;63237;49.826;6.740;2022-09-09T05:23:03;99604.42;;;25.13;48.69
74722;BME280;63237;49.826;6.740;2022-09-09T05:25:34;99602.90;;;25.13;48.71
74722;BME280;63237;49.826;6.740;2022-09-09T05:28:04;99604.89;;;25.12;48.87
74722;BME280;63237;49.826;6.740;2022-09-09T05:30:34;99603.52;;;25.11;48.86
74722;BME280;63237;49.826;6.740;2022-09-09T05:33:07;99602.13;;;25.10;48.93
74722;BME280;63237;49.826;6.740;2022-09-09T05:35:35;99605.48;;;25.09;48.93
74722;BME280;63237;49.826;6.740;2022-09-09T05:38:06;99602.51;;;25.09;49.10
74722;BME280;63237;49.826;6.740;2022-09-09T05:40:37;99600.81;;;25.09;49.13
74722;BME280;63237;49.826;6.740;2022-09-09T05:43:07;99601.36;;;25.09;49.17
74722;BME280;63237;49.826;6.740;2022-09-09T05:45:37;99607.18;;;25.05;49.23
74722;BME280;63237;49.826;6.740;2022-09-09T05:48:08;99601.23;;;25.06;49.19
74722;BME280;63237;49.826;6.740;2022-09-09T05:50:39;99604.93;;;25.12;49.02
74722;BME280;63237;49.826;6.740;2022-09-09T05:53:09;99600.37;;;25.13;48.89
74722;BME280;63237;49.826;6.740;2022-09-09T05:55:39;99605.70;;;25.13;48.82
74722;BME280;63237;49.826;6.740;2022-09-09T05:58:11;99605.13;;;25.12;48.78
74722;BME280;63237;49.826;6.740;2022-09-09T06:00:41;99602.73;;;25.14;48.65
74722;BME280;63237;49.826;6.740;2022-09-09T06:03:12;99605.02;;;25.15;48.66
74722;BME280;63237;49.826;6.740;2022-09-09T06:05:42;99607.40;;;25.11;48.80
74722;BME280;63237;49.826;6.740;2022-09-09T06:08:13;99607.77;;;25.10;48.86
74722;BME280;63237;49.826;6.740;2022-09-09T06:10:44;99601.43;;;25.06;49.01
74722;BME280;63237;49.826;6.740;2022-09-09T06:13:13;99602.98;;;25.06;49.04
74722;BME280;63237;49.826;6.740;2022-09-09T06:15:50;99603.39;;;25.07;49.10
74722;BME280;63237;49.826;6.740;2022-09-09T06:18:19;99601.37;;;25.07;49.18
74722;BME280;63237;49.826;6.740;2022-09-09T06:20:59;99594.14;;;25.06;49.15
74722;BME280;63237;49.826;6.740;2022-09-09T06:23:16;99598.50;;;25.05;49.24
74722;BME280;63237;49.826;6.740;2022-09-09T06:25:46;99597.00;;;25.10;48.86
74722;BME280;63237;49.826;6.740;2022-09-09T06:28:18;99599.34;;;25.07;48.97
74722;BME280;63237;49.826;6.740;2022-09-09T06:30:47;99599.17;;;25.06;49.13
74722;BME280;63237;49.826;6.740;2022-09-09T06:33:18;99605.66;;;25.07;49.08
74722;BME280;63237;49.826;6.740;2022-09-09T06:35:52;99606.30;;;25.08;48.68
74722;BME280;63237;49.826;6.740;2022-09-09T06:38:19;99608.18;;;25.08;48.94
74722;BME280;63237;49.826;6.740;2022-09-09T06:40:53;99605.92;;;25.06;48.95
74722;BME280;63237;49.826;6.740;2022-09-09T06:43:24;99605.38;;;25.09;48.88
74722;BME280;63237;49.826;6.740;2022-09-09T06:45:58;99603.83;;;25.06;49.10
74722;BME280;63237;49.826;6.740;2022-09-09T06:48:21;99600.17;;;25.09;48.78
74722;BME280;63237;49.826;6.740;2022-09-09T06:51:06;99610.14;;;25.09;48.65
74722;BME280;63237;49.826;6.740;2022-09-09T06:53:24;99607.75;;;25.07;48.94
74722;BME280;63237;49.826;6.740;2022-09-09T06:55:53;99610.78;;;25.07;48.98
74722;BME280;63237;49.826;6.740;2022-09-09T06:58:24;99612.60;;;25.10;48.74
74722;BME280;63237;49.826;6.740;2022-09-09T07:01:05;99607.34;;;25.08;48.78
74722;BME280;63237;49.826;6.740;2022-09-09T07:03:24;99612.06;;;25.08;48.62
74722;BME280;63237;49.826;6.740;2022-09-09T07:05:56;99612.13;;;25.09;48.61
74722;BME280;63237;49.826;6.740;2022-09-09T07:08:25;99612.81;;;25.05;48.81
74722;BME280;63237;49.826;6.740;2022-09-09T07:11:04;99613.36;;;25.07;48.54
74722;BME280;63237;49.826;6.740;2022-09-09T07:13:27;99616.87;;;25.07;48.78
74722;BME280;63237;49.826;6.740;2022-09-09T07:16:08;99612.98;;;25.07;48.67
74722;BME280;63237;49.826;6.740;2022-09-09T07:18:27;99616.97;;;25.06;48.60
74722;BME280;63237;49.826;6.740;2022-09-09T07:20:58;99622.16;;;25.10;48.56
74722;BME280;63237;49.826;6.740;2022-09-09T07:23:29;99626.35;;;25.10;48.50
74722;BME280;63237;49.826;6.740;2022-09-09T07:25:59;99627.88;;;25.06;48.56
74722;BME280;63237;49.826;6.740;2022-09-09T07:28:31;99625.64;;;25.09;48.51
74722;BME280;63237;49.826;6.740;2022-09-09T07:31:01;99625.52;;;25.09;48.50
74722;BME280;63237;49.826;6.740;2022-09-09T07:33:34;99620.78;;;25.07;48.54
74722;BME280;63237;49.826;6.740;2022-09-09T07:36:14;99625.81;;;25.09;48.57
74722;BME280;63237;49.826;6.740;2022-09-09T07:38:33;99623.28;;;25.07;48.52
74722;BME280;63237;49.826;6.740;2022-09-09T07:41:03;99624.66;;;25.09;48.51
74722;BME280;63237;49.826;6.740;2022-09-09T07:43:33;99626.02;;;25.10;48.51
74722;BME280;63237;49.826;6.740;2022-09-09T07:46:03;99631.16;;;25.07;48.61
74722;BME280;63237;49.826;6.740;2022-09-09T07:48:33;99630.64;;;25.09;48.56
74722;BME280;63237;49.826;6.740;2022-09-09T07:51:18;99629.09;;;25.08;48.60
74722;BME280;63237;49.826;6.740;2022-09-09T07:53:37;99632.03;;;25.08;48.62
74722;BME280;63237;49.826;6.740;2022-09-09T07:56:07;99634.77;;;25.09;48.54
74722;BME280;63237;49.826;6.740;2022-09-09T07:58:39;99637.57;;;25.06;48.64
74722;BME280;63237;49.826;6.740;2022-09-09T08:01:11;99641.66;;;25.08;48.56
74722;BME280;63237;49.826;6.740;2022-09-09T08:03:37;99639.77;;;25.06;48.56
74722;BME280;63237;49.826;6.740;2022-09-09T08:06:08;99640.64;;;25.06;48.56
74722;BME280;63237;49.826;6.740;2022-09-09T08:08:40;99641.89;;;25.06;48.56
74722;BME280;63237;49.826;6.740;2022-09-09T08:11:12;99647.50;;;25.06;48.65
74722;BME280;63237;49.826;6.740;2022-09-09T08:13:39;99643.72;;;25.07;48.60
74722;BME280;63237;49.826;6.740;2022-09-09T08:16:12;99637.98;;;25.07;48.56
74722;BME280;63237;49.826;6.740;2022-09-09T08:18:40;99643.82;;;25.06;48.65
74722;BME280;63237;49.826;6.740;2022-09-09T08:21:15;99637.03;;;25.06;48.61
74722;BME280;63237;49.826;6.740;2022-09-09T08:23:42;99633.96;;;25.05;48.69
74722;BME280;63237;49.826;6.740;2022-09-09T08:26:14;99640.55;;;25.06;48.65
74722;BME280;63237;49.826;6.740;2022-09-09T08:28:43;99642.20;;;25.07;48.69
74722;BME280;63237;49.826;6.740;2022-09-09T08:31:16;99641.45;;;25.06;48.73
74722;BME280;63237;49.826;6.740;2022-09-09T08:33:47;99639.36;;;25.08;48.71
74722;BME280;63237;49.826;6.740;2022-09-09T08:36:20;99643.25;;;25.06;48.82
74722;BME280;63237;49.826;6.740;2022-09-09T08:38:50;99643.92;;;25.06;48.85
74722;BME280;63237;49.826;6.740;2022-09-09T08:43:47;99642.20;;;25.07;48.94
74722;BME280;63237;49.826;6.740;2022-09-09T08:46:26;99649.97;;;25.05;48.94
74722;BME280;63237;49.826;6.740;2022-09-09T08:48:54;99654.57;;;25.03;48.73
74722;BME280;63237;49.826;6.740;2022-09-09T08:51:18;99661.36;;;25.02;48.91
74722;BME280;63237;49.826;6.740;2022-09-09T08:53:51;99659.53;;;25.03;48.75
74722;BME280;63237;49.826;6.740;2022-09-09T08:56:22;99658.25;;;25.03;48.82
74722;BME280;63237;49.826;6.740;2022-09-09T08:58:54;99662.03;;;25.04;48.82
74722;BME280;63237;49.826;6.740;2022-09-09T09:01:28;99670.20;;;25.04;48.74
74722;BME280;63237;49.826;6.740;2022-09-09T09:06:43;99676.36;;;25.02;48.81
74722;BME280;63237;49.826;6.740;2022-09-09T09:09:01;99676.42;;;25.02;48.76
74722;BME280;63237;49.826;6.740;2022-09-09T09:11:23;99678.98;;;25.04;48.73
74722;BME280;63237;49.826;6.740;2022-09-09T09:16:40;99676.86;;;25.03;48.74
74722;BME280;63237;49.826;6.740;2022-09-09T09:18:53;99673.85;;;25.04;48.73
74722;BME280;63237;49.826;6.740;2022-09-09T09:21:39;99674.59;;;25.02;48.82
74722;BME280;63237;49.826;6.740;2022-09-09T09:23:57;99670.17;;;25.01;48.83
74722;BME280;63237;49.826;6.740;2022-09-09T09:26:35;99672.95;;;24.98;48.90
74722;BME280;63237;49.826;6.740;2022-09-09T09:28:59;99673.82;;;25.02;48.84
74722;BME280;63237;49.826;6.740;2022-09-09T09:31:27;99663.86;;;25.00;48.88
74722;BME280;63237;49.826;6.740;2022-09-09T09:33:58;99663.83;;;25.01;48.84
74722;BME280;63237;49.826;6.740;2022-09-09T09:36:41;99663.35;;;25.01;48.94
74722;BME280;63237;49.826;6.740;2022-09-09T09:39:00;99658.29;;;25.01;48.94
74722;BME280;63237;49.826;6.740;2022-09-09T09:41:36;99661.33;;;25.03;48.93
74722;BME280;63237;49.826;6.740;2022-09-09T09:43:58;99655.04;;;25.03;48.98
74722;BME280;63237;49.826;6.740;2022-09-09T09:46:28;99659.36;;;25.03;49.00
74722;BME280;63237;49.826;6.740;2022-09-09T09:49:02;99655.65;;;25.02;49.03
74722;BME280;63237;49.826;6.740;2022-09-09T09:51:31;99661.02;;;25.02;49.01
74722;BME280;63237;49.826;6.740;2022-09-09T09:54:22;99662.17;;;25.02;48.99
74722;BME280;63237;49.826;6.740;2022-09-09T09:56:33;99655.98;;;25.03;48.93
74722;BME280;63237;49.826;6.740;2022-09-09T09:59:01;99654.47;;;25.00;48.97
74722;BME280;63237;49.826;6.740;2022-09-09T10:01:35;99654.74;;;25.01;48.94
74722;BME280;63237;49.826;6.740;2022-09-09T10:04:18;99650.25;;;25.00;48.93
74722;BME280;63237;49.826;6.740;2022-09-09T10:06:35;99648.56;;;25.00;48.92
74722;BME280;63237;49.826;6.740;2022-09-09T10:09:30;99646.80;;;24.99;48.97
74722;BME280;63237;49.826;6.740;2022-09-09T10:11:47;99639.58;;;25.02;48.90
74722;BME280;63237;49.826;6.740;2022-09-09T10:14:39;99644.98;;;24.99;48.92
74722;BME280;63237;49.826;6.740;2022-09-09T10:19:09;99640.12;;;25.01;48.82
74722;BME280;63237;49.826;6.740;2022-09-09T10:27:05;99638.77;;;24.99;48.68
74722;BME280;63237;49.826;6.740;2022-09-09T10:29:20;99638.33;;;24.99;48.54
74722;BME280;63237;49.826;6.740;2022-09-09T10:31:57;99630.36;;;25.00;48.57
74722;BME280;63237;49.826;6.740;2022-09-09T10:36:43;99633.60;;;24.99;48.22
74722;BME280;63237;49.826;6.740;2022-09-09T10:39:20;99625.43;;;24.98;48.23
74722;BME280;63237;49.826;6.740;2022-09-09T10:42:06;99622.55;;;25.01;48.04
74722;BME280;63237;49.826;6.740;2022-09-09T10:46:51;99626.44;;;24.99;48.07
74722;BME280;63237;49.826;6.740;2022-09-09T10:49:54;99628.12;;;25.00;47.90
74722;BME280;63237;49.826;6.740;2022-09-09T10:56:43;99619.83;;;24.99;47.61
74722;BME280;63237;49.826;6.740;2022-09-09T10:59:13;99611.48;;;25.01;47.69
74722;BME280;63237;49.826;6.740;2022-09-09T11:01:46;99612.77;;;24.99;47.70
74722;BME280;63237;49.826;6.740;2022-09-09T11:04:24;99608.61;;;25.01;47.57
74722;BME280;63237;49.826;6.740;2022-09-09T11:06:44;99603.41;;;25.02;47.48
74722;BME280;63237;49.826;6.740;2022-09-09T11:09:16;99597.12;;;25.01;47.44
74722;BME280;63237;49.826;6.740;2022-09-09T11:11:52;99605.77;;;25.01;47.54
74722;BME280;63237;49.826;6.740;2022-09-09T11:14:15;99597.73;;;25.01;47.49
74722;BME280;63237;49.826;6.740;2022-09-09T11:16:50;99597.77;;;25.02;47.56
74722;BME280;63237;49.826;6.740;2022-09-09T11:21:46;99600.44;;;25.01;47.52
74722;BME280;63237;49.826;6.740;2022-09-09T11:24:21;99597.97;;;25.01;47.26
74722;BME280;63237;49.826;6.740;2022-09-09T11:26:54;99594.38;;;25.02;47.36
74722;BME280;63237;49.826;6.740;2022-09-09T11:32:00;99602.49;;;25.02;47.26
74722;BME280;63237;49.826;6.740;2022-09-09T11:37:07;99599.15;;;25.01;47.16
74722;BME280;63237;49.826;6.740;2022-09-09T11:39:47;99593.81;;;25.02;47.20
74722;BME280;63237;49.826;6.740;2022-09-09T11:41:45;99595.64;;;25.01;47.10
74722;BME280;63237;49.826;6.740;2022-09-09T11:44:20;99590.81;;;25.00;47.08
74722;BME280;63237;49.826;6.740;2022-09-09T11:46:50;99584.59;;;25.00;47.02
74722;BME280;63237;49.826;6.740;2022-09-09T11:49:30;99583.81;;;25.01;47.06
74722;BME280;63237;49.826;6.740;2022-09-09T11:51:46;99584.66;;;25.00;46.96
74722;BME280;63237;49.826;6.740;2022-09-09T11:54:44;99588.78;;;25.00;46.96
74722;BME280;63237;49.826;6.740;2022-09-09T11:56:47;99593.38;;;25.02;47.00
74722;BME280;63237;49.826;6.740;2022-09-09T11:59:25;99592.16;;;25.01;46.91
74722;BME280;63237;49.826;6.740;2022-09-09T12:01:55;99598.83;;;24.94;46.36
74722;BME280;63237;49.826;6.740;2022-09-09T12:04:31;99597.82;;;24.92;45.96
74722;BME280;63237;49.826;6.740;2022-09-09T12:07:02;99588.44;;;24.91;45.69
74722;BME280;63237;49.826;6.740;2022-09-09T12:11:51;99583.33;;;24.92;46.02
74722;BME280;63237;49.826;6.740;2022-09-09T12:14:34;99590.26;;;24.90;46.18
74722;BME280;63237;49.826;6.740;2022-09-09T12:16:51;99612.98;;;24.92;46.24
74722;BME280;63237;49.826;6.740;2022-09-09T12:19:22;99596.73;;;24.92;46.35
74722;BME280;63237;49.826;6.740;2022-09-09T12:22:04;99593.50;;;24.91;46.43
74722;BME280;63237;49.826;6.740;2022-09-09T12:24:40;99593.53;;;24.92;46.45
74722;BME280;63237;49.826;6.740;2022-09-09T12:27:05;99591.20;;;24.94;46.56
74722;BME280;63237;49.826;6.740;2022-09-09T12:29:30;99593.30;;;24.93;46.86
74722;BME280;63237;49.826;6.740;2022-09-09T12:32:06;99591.88;;;24.92;46.80
74722;BME280;63237;49.826;6.740;2022-09-09T12:34:40;99584.31;;;24.92;46.73
74722;BME280;63237;49.826;6.740;2022-09-09T12:37:06;99591.36;;;24.94;46.76
74722;BME280;63237;49.826;6.740;2022-09-09T12:39:42;99593.53;;;24.93;46.88
74722;BME280;63237;49.826;6.740;2022-09-09T12:41:58;99592.55;;;24.92;46.82
74722;BME280;63237;49.826;6.740;2022-09-09T12:44:29;99577.97;;;24.91;46.90
74722;BME280;63237;49.826;6.740;2022-09-09T12:47:02;99587.55;;;24.93;46.89
74722;BME280;63237;49.826;6.740;2022-09-09T12:49:34;99574.76;;;24.91;46.96
74722;BME280;63237;49.826;6.740;2022-09-09T12:52:06;99563.34;;;24.92;46.91
74722;BME280;63237;49.826;6.740;2022-09-09T12:54:30;99582.69;;;24.91;46.91
74722;BME280;63237;49.826;6.740;2022-09-09T12:57:01;99568.64;;;24.92;46.85
74722;BME280;63237;49.826;6.740;2022-09-09T12:59:39;99560.04;;;24.91;46.89
74722;BME280;63237;49.826;6.740;2022-09-09T13:02:01;99548.52;;;24.92;46.93
74722;BME280;63237;49.826;6.740;2022-09-09T13:04:32;99546.42;;;24.92;46.96
74722;BME280;63237;49.826;6.740;2022-09-09T13:07:06;99551.02;;;24.92;46.87
74722;BME280;63237;49.826;6.740;2022-09-09T13:09:33;99546.86;;;24.92;46.90
74722;BME280;63237;49.826;6.740;2022-09-09T13:12:19;99541.97;;;24.90;46.89
74722;BME280;63237;49.826;6.740;2022-09-09T13:14:37;99543.29;;;24.90;46.74
74722;BME280;63237;49.826;6.740;2022-09-09T13:17:06;99539.10;;;24.91;46.54
74722;BME280;63237;49.826;6.740;2022-09-09T13:19:36;99532.82;;;24.90;46.54
74722;BME280;63237;49.826;6.740;2022-09-09T13:22:24;99530.83;;;24.91;46.37
74722;BME280;63237;49.826;6.740;2022-09-09T13:24:36;99527.66;;;24.89;46.21
74722;BME280;63237;49.826;6.740;2022-09-09T13:27:28;99519.42;;;24.90;46.11
74722;BME280;63237;49.826;6.740;2022-09-09T13:29:50;99530.12;;;24.89;45.99
74722;BME280;63237;49.826;6.740;2022-09-09T13:32:17;99529.39;;;24.85;45.75
74722;BME280;63237;49.826;6.740;2022-09-09T13:34:37;99531.09;;;24.81;45.62
74722;BME280;63237;49.826;6.740;2022-09-09T13:39:38;99533.82;;;24.84;45.28
74722;BME280;63237;49.826;6.740;2022-09-09T13:42:24;99536.11;;;24.85;45.25
74722;BME280;63237;49.826;6.740;2022-09-09T13:44:40;99540.44;;;24.84;45.18
74722;BME280;63237;49.826;6.740;2022-09-09T13:47:18;99539.36;;;24.85;45.31
74722;BME280;63237;49.826;6.740;2022-09-09T13:49:41;99552.48;;;24.85;45.78
74722;BME280;63237;49.826;6.740;2022-09-09T13:52:14;99554.45;;;24.85;47.09
74722;BME280;63237;49.826;6.740;2022-09-09T13:54:43;99562.42;;;24.84;47.92
74722;BME280;63237;49.826;6.740;2022-09-09T13:57:20;99565.56;;;24.84;48.79
74722;BME280;63237;49.826;6.740;2022-09-09T13:59:44;99565.59;;;24.84;48.95
74722;BME280;63237;49.826;6.740;2022-09-09T14:02:17;99558.06;;;24.81;50.23
74722;BME280;63237;49.826;6.740;2022-09-09T14:04:45;99557.77;;;24.82;50.67
74722;BME280;63237;49.826;6.740;2022-09-09T14:07:17;99559.89;;;24.82;51.06
74722;BME280;63237;49.826;6.740;2022-09-09T14:09:52;99592.98;;;24.82;51.07
74722;BME280;63237;49.826;6.740;2022-09-09T14:12:17;99632.48;;;24.84;51.14